Latest Coastal Weather Observations for Croker Island Airport

IDD60701

Issued at 2:11 pm CST Friday 29 May 2015 (issued every 10 minutes, with the page automatically refreshed every 10 minutes)

About coastal observations | Map of coastal stations | Coastal observations for NT | Marine services | Other Formats
Station Details ID: 014308 Name: CROKER ISLAND AIRPORT Lat: -11.16 Lon: 132.48 Height: 9.2 m
Data from the previous 72 hours. | See also: Recent months for locations in Northern Territory
Date/Time
CST
Temp

°C
Wind Pressure Rain
since 9am
mm
Weather Cloud Vis
km
Sea
Height
m
Swell
Dir
 
Speed
knots
Gust
knots
hPa Trend Height
m
Period
s
Dir
29/02:00pm 28.9 ESE 12 17 1011.9 - 0.0 - - - - - - -
29/01:30pm 29.0 E 14 20 1012.0 - 0.0 - - - - - - -
29/01:00pm 28.8 ESE 15 22 1012.0 - 0.0 - - - - - - -
29/12:30pm 29.6 E 15 23 1012.3 - 0.0 - - - - - - -
29/12:00pm 29.8 ESE 13 19 1013.0 - 0.0 - - - - - - -
29/11:30am 28.6 ESE 11 17 1013.6 - 0.0 - - - - - - -
29/11:00am 27.8 ESE 10 15 1014.2 - 0.0 - - - - - - -
29/10:30am 28.1 ESE 9 15 1014.5 - 0.0 - - - - - - -
29/10:00am 28.2 ESE 9 16 1014.4 - 0.0 - - - - - - -
29/09:30am 27.7 SE 4 7 1014.2 - 0.0 - - - - - - -
29/09:00am 26.6 SE 5 8 1014.1 - 0.0 - - - - - - -
29/08:30am 25.9 SE 5 8 1013.8 - 0.0 - - - - - - -
29/08:00am 25.3 SE 7 10 1013.3 - 0.0 - - - - - - -
29/07:30am 25.1 SE 6 8 1012.9 - 0.0 - - - - - - -
29/07:00am 24.6 ESE 4 5 1012.7 - 0.0 - - - - - - -
29/06:30am 24.6 SE 5 7 1012.4 - 0.0 - - - - - - -
29/06:00am 24.5 SE 5 7 1011.9 - 0.0 - - - - - - -
29/05:30am 24.4 SE 5 6 1012.0 - 0.0 - - - - - - -
29/05:00am 24.1 SE 5 6 1012.1 - 0.0 - - - - - - -
29/04:30am 24.3 SE 4 7 1012.1 - 0.0 - - - - - - -
29/04:00am 24.4 ESE 5 7 1012.1 - 0.0 - - - - - - -
29/03:30am 24.1 E 3 4 1012.1 - 0.0 - - - - - - -
29/03:00am 23.9 E 2 3 1012.2 - 0.0 - - - - - - -
29/02:30am 23.6 SE 2 3 1012.2 - 0.0 - - - - - - -
29/02:00am 23.7 ESE 3 4 1012.2 - 0.0 - - - - - - -
29/01:30am 23.6 ESE 3 4 1012.2 - 0.0 - - - - - - -
29/01:00am 23.5 ESE 2 3 1012.3 - 0.0 - - - - - - -
29/12:30am 24.0 ESE 3 3 1012.5 - 0.0 - - - - - - -
29/12:00am 24.2 SE 2 3 1012.6 - 0.0 - - - - - - -
 
Date/Time
CST
Temp

°C
Wind Pressure Rain
since 9am
mm
Weather Cloud Vis
km
Sea
Height
m
Swell
Dir
 
Speed
knots
Gust
knots
hPa Trend Height
m
Period
s
Dir
28/11:30pm 24.4 SSE 4 4 1012.6 - 0.0 - - - - - - -
28/11:00pm 24.0 SE 3 4 1012.9 - 0.0 - - - - - - -
28/10:30pm 23.4 ESE 2 3 1013.0 - 0.0 - - - - - - -
28/10:00pm 23.4 E 2 3 1013.0 - 0.0 - - - - - - -
28/09:30pm 24.1 E 3 3 1012.8 - 0.0 - - - - - - -
28/09:00pm 23.5 E 2 2 1012.6 - 0.0 - - - - - - -
28/08:30pm 24.4 ENE 3 3 1012.5 - 0.0 - - - - - - -
28/08:00pm 24.8 E 3 4 1012.2 - 0.0 - - - - - - -
28/07:30pm 25.1 E 3 5 1012.0 - 0.0 - - - - - - -
28/07:00pm 25.4 E 3 4 1011.8 - 0.0 - - - - - - -
28/06:30pm 26.2 E 4 6 1011.6 - 0.0 - - - - - - -
28/06:00pm 27.2 E 7 10 1011.5 - 0.0 - - - - - - -
28/05:30pm 27.7 E 9 13 1011.3 - 0.0 - - - - - - -
28/05:00pm 28.3 E 11 18 1011.3 - 0.0 - - - - - - -
28/04:30pm 28.8 E 11 15 1011.1 - 0.0 - - - - - - -
28/04:00pm 29.2 E 9 15 1011.0 - 0.0 - - - - - - -
28/03:30pm 29.5 E 10 14 1011.0 - 0.0 - - - - - - -
28/03:00pm 29.6 E 10 14 1011.2 - 0.0 - - - - - - -
28/02:30pm 29.8 E 10 16 1011.4 - 0.0 - - - - - - -
28/02:00pm 30.6 ESE 10 17 1011.7 - 0.0 - - - - - - -
28/01:30pm 30.4 E 12 17 1012.1 - 0.0 - - - - - - -
28/01:00pm 30.7 ESE 10 17 1012.6 - 0.0 - - - - - - -
28/12:30pm 29.2 ESE 11 16 1013.0 - 0.0 - - - - - - -
28/12:00pm 28.1 ESE 12 15 1013.2 - 0.0 - - - - - - -
28/11:30am 28.0 E 9 13 1013.9 - 0.0 - - - - - - -
28/11:00am 27.8 E 10 16 1014.1 - 0.0 - - - - - - -
28/10:30am 27.7 E 11 15 1014.4 - 0.0 - - - - - - -
28/10:00am 27.3 E 9 16 1014.3 - 0.0 - - - - - - -
28/09:30am 26.9 E 9 15 1014.3 - 0.0 - - - - - - -
28/09:00am 27.9 E 9 14 1014.1 - 0.0 - - - - - - -
28/08:30am 27.3 ESE 7 10 1013.8 - 0.0 - - - - - - -
28/08:00am 26.3 ESE 6 9 1013.3 - 0.0 - - - - - - -
28/07:30am 25.2 ESE 6 9 1013.0 - 0.0 - - - - - - -
28/07:00am 24.8 ESE 6 9 1012.6 - 0.0 - - - - - - -
28/06:30am 25.1 ESE 5 7 1012.3 - 0.0 - - - - - - -
28/06:00am 25.8 ESE 7 11 1012.0 - 0.0 - - - - - - -
28/05:30am 25.5 ESE 5 7 1011.7 - 0.0 - - - - - - -
28/05:00am 25.9 E 7 11 1011.3 - 0.0 - - - - - - -
28/04:30am 25.9 E 6 9 1011.4 - 0.0 - - - - - - -
28/04:00am 26.0 E 7 9 1011.1 - 0.0 - - - - - - -
28/03:30am 26.0 E 7 10 1011.2 - 0.0 - - - - - - -
28/03:00am 26.0 E 6 8 1011.4 - 0.0 - - - - - - -
28/02:30am 26.1 E 6 8 1011.6 - 0.0 - - - - - - -
28/02:00am 26.1 E 6 7 1011.9 - 0.0 - - - - - - -
28/01:30am 26.2 E 6 9 1012.2 - 0.0 - - - - - - -
28/01:00am 26.3 E 6 9 1012.5 - 0.0 - - - - - - -
28/12:30am 26.3 E 5 8 1012.5 - 0.0 - - - - - - -
28/12:00am 26.3 E 4 7 1012.7 - 0.0 - - - - - - -
 
Date/Time
CST
Temp

°C
Wind Pressure Rain
since 9am
mm
Weather Cloud Vis
km
Sea
Height
m
Swell
Dir
 
Speed
knots
Gust
knots
hPa Trend Height
m
Period
s
Dir
27/11:30pm 26.6 E 5 9 1012.8 - 0.0 - - - - - - -
27/11:00pm 26.6 E 7 10 1012.7 - 0.0 - - - - - - -
27/10:30pm 26.8 E 7 11 1012.6 - 0.0 - - - - - - -
27/10:00pm 27.1 E 9 13 1012.7 - 0.0 - - - - - - -
27/09:30pm 27.2 E 8 12 1012.6 - 0.0 - - - - - - -
27/09:00pm 26.9 E 5 9 1012.5 - 0.0 - - - - - - -
27/08:30pm 27.0 E 7 13 1012.4 - 0.0 - - - - - - -
27/08:00pm 27.3 E 8 13 1012.0 - 0.0 - - - - - - -
27/07:30pm 27.3 ENE 8 11 1011.9 - 0.0 - - - - - - -
27/07:00pm 27.0 E 7 10 1011.6 - 0.0 - - - - - - -
27/06:30pm 27.3 E 10 13 1011.6 - 0.0 - - - - - - -
27/06:00pm 27.5 E 9 14 1011.3 - 0.0 - - - - - - -
27/05:30pm 28.0 E 12 19 1011.0 - 0.0 - - - - - - -
27/05:00pm 28.3 ESE 10 16 1010.6 - 0.0 - - - - - - -
27/04:30pm 28.5 ESE 10 15 1010.5 - 0.0 - - - - - - -
27/04:00pm 28.6 E 13 17 1010.5 - 0.0 - - - - - - -
27/03:30pm 29.5 ESE 13 19 1010.6 - 0.0 - - - - - - -
27/03:00pm 29.7 ESE 13 18 1010.7 - 0.0 - - - - - - -
27/02:30pm 29.4 ESE 12 19 1010.9 - 0.0 - - - - - - -
27/02:00pm 29.9 ESE 14 20 1011.7 - 0.0 - - - - - - -
27/01:30pm 29.8 E 13 20 1012.3 - 0.0 - - - - - - -
27/01:00pm 29.7 E 15 25 1012.9 - 0.0 - - - - - - -
27/12:50pm 29.4 E 16 26 1013.0 - 0.0 - - - - - - -
27/12:30pm 30.1 E 14 21 1013.2 - 0.0 - - - - - - -
27/12:00pm 29.3 E 11 16 1013.5 - 0.0 - - - - - - -
27/11:30am 30.2 ESE 12 19 1013.8 - 0.0 - - - - - - -
27/11:00am 29.4 ESE 12 17 1013.9 - 0.0 - - - - - - -
27/10:30am 28.9 ESE 12 19 1014.1 - 0.0 - - - - - - -
27/10:00am 28.6 ESE 11 15 1014.4 - 0.0 - - - - - - -
27/09:30am 28.0 ESE 9 15 1014.5 - 0.0 - - - - - - -
27/09:00am 27.6 ESE 10 15 1014.4 - 0.0 - - - - - - -
27/08:30am 27.1 ESE 9 14 1014.0 - 0.0 - - - - - - -
27/08:00am 26.1 ESE 7 13 1013.6 - 0.0 - - - - - - -
27/07:30am 25.6 E 7 10 1013.3 - 0.0 - - - - - - -
27/07:00am 25.2 ESE 6 10 1012.9 - 0.0 - - - - - - -
27/06:30am 25.2 E 6 9 1012.8 - 0.0 - - - - - - -
27/06:00am 25.2 E 7 10 1012.4 - 0.0 - - - - - - -
27/05:30am 25.2 ESE 6 9 1012.0 - 0.0 - - - - - - -
27/05:00am 25.4 ESE 7 11 1012.1 - 0.0 - - - - - - -
27/04:30am 25.9 ESE 8 12 1012.2 - 0.0 - - - - - - -
27/04:00am 25.9 ESE 7 11 1012.2 - 0.0 - - - - - - -
27/03:30am 26.0 ESE 7 12 1012.3 - 0.0 - - - - - - -
27/03:00am 26.4 ESE 9 15 1012.5 - 0.0 - - - - - - -
27/02:30am 26.5 E 8 13 1013.0 - 0.0 - - - - - - -
27/02:00am 26.7 E 8 11 1013.4 - 0.0 - - - - - - -
27/01:30am 26.5 E 6 9 1013.8 - 0.0 - - - - - - -
27/01:00am 26.5 E 7 9 1014.0 - 0.0 - - - - - - -
27/12:30am 26.6 E 6 9 1014.2 - 0.0 - - - - - - -
27/12:00am 26.6 E 6 9 1014.3 - 0.0 - - - - - - -
 
Date/Time
CST
Temp

°C
Wind Pressure Rain
since 9am
mm
Weather Cloud Vis
km
Sea
Height
m
Swell
Dir
 
Speed
knots
Gust
knots
hPa Trend Height
m
Period
s
Dir
26/11:30pm 26.6 E 6 9 1014.7 - 0.0 - - - - - - -
26/11:00pm 26.6 E 6 8 1014.6 - 0.0 - - - - - - -
26/10:30pm 26.8 E 6 9 1014.7 - 0.0 - - - - - - -
26/10:00pm 26.8 E 6 8 1014.8 - 0.0 - - - - - - -
26/09:30pm 26.9 E 6 9 1014.6 - 0.0 - - - - - - -
26/09:00pm 27.1 E 7 9 1014.3 - 0.0 - - - - - - -
26/08:30pm 27.2 E 9 13 1014.0 - 0.0 - - - - - - -
26/08:00pm 27.2 E 8 10 1013.7 - 0.0 - - - - - - -
26/07:30pm 27.1 ENE 7 12 1013.5 - 0.0 - - - - - - -
26/07:00pm 27.2 ENE 7 10 1013.1 - 0.0 - - - - - - -
26/06:30pm 27.4 ENE 8 13 1012.7 - 0.0 - - - - - - -
26/06:00pm 28.1 ENE 9 13 1012.4 - 0.0 - - - - - - -
26/05:30pm 28.8 ENE 9 13 1012.2 - 0.0 - - - - - - -
26/05:00pm 29.1 E 8 13 1012.3 - 0.0 - - - - - - -
26/04:30pm 29.1 E 14 19 1012.2 - 0.0 - - - - - - -
26/04:00pm 29.8 E 15 22 1012.2 - 0.0 - - - - - - -
26/03:30pm 30.1 E 17 23 1012.4 - 0.0 - - - - - - -
26/03:00pm 30.7 E 17 24 1012.6 - 0.0 - - - - - - -
26/02:30pm 30.3 E 16 24 1012.6 - 0.0 - - - - - - -

Other Formats:

Comma delimited format used in spreadsheet applications
http://www.bom.gov.au/fwo/IDD60701/IDD60701.94108.axf

JavaScript Object Notation format (JSON) in row-major order
http://www.bom.gov.au/fwo/IDD60701/IDD60701.94108.json